sensor_id;sensor_type;location;lat;lon;timestamp;P1;durP1;ratioP1;P2;durP2;ratioP2
5475;SDS011;2760;50.000;9.194;2022-12-16T00:01:09;47.83;;;20.87;;
5475;SDS011;2760;50.000;9.194;2022-12-16T00:03:38;40.00;;;19.60;;
5475;SDS011;2760;50.000;9.194;2022-12-16T00:06:06;42.30;;;19.10;;
5475;SDS011;2760;50.000;9.194;2022-12-16T00:08:35;53.70;;;19.93;;
5475;SDS011;2760;50.000;9.194;2022-12-16T00:11:05;47.93;;;20.87;;
5475;SDS011;2760;50.000;9.194;2022-12-16T00:13:34;35.57;;;18.67;;
5475;SDS011;2760;50.000;9.194;2022-12-16T00:16:03;37.73;;;18.53;;
5475;SDS011;2760;50.000;9.194;2022-12-16T00:18:31;38.60;;;17.53;;
5475;SDS011;2760;50.000;9.194;2022-12-16T00:20:59;40.07;;;19.33;;
5475;SDS011;2760;50.000;9.194;2022-12-16T00:23:27;47.53;;;19.87;;
5475;SDS011;2760;50.000;9.194;2022-12-16T00:25:55;38.37;;;17.27;;
5475;SDS011;2760;50.000;9.194;2022-12-16T00:28:26;38.03;;;19.03;;
5475;SDS011;2760;50.000;9.194;2022-12-16T00:30:57;33.73;;;17.20;;
5475;SDS011;2760;50.000;9.194;2022-12-16T00:33:24;40.60;;;17.97;;
5475;SDS011;2760;50.000;9.194;2022-12-16T00:35:53;39.57;;;17.10;;
5475;SDS011;2760;50.000;9.194;2022-12-16T00:38:20;42.70;;;19.77;;
5475;SDS011;2760;50.000;9.194;2022-12-16T00:40:49;28.77;;;16.27;;
5475;SDS011;2760;50.000;9.194;2022-12-16T00:43:16;36.83;;;18.00;;
5475;SDS011;2760;50.000;9.194;2022-12-16T00:45:45;34.20;;;17.60;;
5475;SDS011;2760;50.000;9.194;2022-12-16T00:48:12;35.53;;;18.50;;
5475;SDS011;2760;50.000;9.194;2022-12-16T00:50:40;35.97;;;17.10;;
5475;SDS011;2760;50.000;9.194;2022-12-16T00:53:09;36.47;;;16.60;;
5475;SDS011;2760;50.000;9.194;2022-12-16T00:55:36;42.93;;;19.77;;
5475;SDS011;2760;50.000;9.194;2022-12-16T00:58:05;34.00;;;16.90;;
5475;SDS011;2760;50.000;9.194;2022-12-16T01:00:32;42.20;;;18.10;;
5475;SDS011;2760;50.000;9.194;2022-12-16T01:03:01;43.87;;;17.00;;
5475;SDS011;2760;50.000;9.194;2022-12-16T01:05:28;38.60;;;17.43;;
5475;SDS011;2760;50.000;9.194;2022-12-16T01:07:55;34.17;;;17.53;;
5475;SDS011;2760;50.000;9.194;2022-12-16T01:10:23;36.07;;;18.47;;
5475;SDS011;2760;50.000;9.194;2022-12-16T01:12:51;40.43;;;17.33;;
5475;SDS011;2760;50.000;9.194;2022-12-16T01:15:18;37.23;;;18.07;;
5475;SDS011;2760;50.000;9.194;2022-12-16T01:17:45;39.33;;;16.20;;
5475;SDS011;2760;50.000;9.194;2022-12-16T01:20:13;43.87;;;19.60;;
5475;SDS011;2760;50.000;9.194;2022-12-16T01:22:40;34.50;;;16.73;;
5475;SDS011;2760;50.000;9.194;2022-12-16T01:25:11;39.37;;;17.97;;
5475;SDS011;2760;50.000;9.194;2022-12-16T01:27:41;31.83;;;16.50;;
5475;SDS011;2760;50.000;9.194;2022-12-16T01:30:09;43.93;;;17.67;;
5475;SDS011;2760;50.000;9.194;2022-12-16T01:32:36;33.97;;;16.20;;
5475;SDS011;2760;50.000;9.194;2022-12-16T01:35:04;31.87;;;16.67;;
5475;SDS011;2760;50.000;9.194;2022-12-16T01:37:33;35.20;;;16.30;;
5475;SDS011;2760;50.000;9.194;2022-12-16T01:40:00;40.17;;;17.70;;
5475;SDS011;2760;50.000;9.194;2022-12-16T01:42:27;29.87;;;15.83;;
5475;SDS011;2760;50.000;9.194;2022-12-16T01:47:57;37.90;;;17.17;;
5475;SDS011;2760;50.000;9.194;2022-12-16T01:50:27;40.57;;;17.03;;
5475;SDS011;2760;50.000;9.194;2022-12-16T01:52:58;33.20;;;14.93;;
5475;SDS011;2760;50.000;9.194;2022-12-16T01:55:31;36.47;;;16.20;;
5475;SDS011;2760;50.000;9.194;2022-12-16T01:58:04;34.47;;;16.33;;
5475;SDS011;2760;50.000;9.194;2022-12-16T02:00:34;38.50;;;17.43;;
5475;SDS011;2760;50.000;9.194;2022-12-16T02:03:04;30.87;;;16.63;;
5475;SDS011;2760;50.000;9.194;2022-12-16T02:05:32;38.03;;;16.30;;
5475;SDS011;2760;50.000;9.194;2022-12-16T02:08:09;34.77;;;18.23;;
5475;SDS011;2760;50.000;9.194;2022-12-16T02:10:41;37.50;;;17.00;;
5475;SDS011;2760;50.000;9.194;2022-12-16T02:13:21;32.30;;;15.40;;
5475;SDS011;2760;50.000;9.194;2022-12-16T02:15:59;29.93;;;14.70;;
5475;SDS011;2760;50.000;9.194;2022-12-16T02:18:37;39.20;;;18.20;;
5475;SDS011;2760;50.000;9.194;2022-12-16T02:27:06;32.13;;;14.83;;
5475;SDS011;2760;50.000;9.194;2022-12-16T02:29:56;32.37;;;16.93;;
5475;SDS011;2760;50.000;9.194;2022-12-16T02:32:46;36.53;;;16.97;;
5475;SDS011;2760;50.000;9.194;2022-12-16T02:35:24;37.63;;;17.27;;
5475;SDS011;2760;50.000;9.194;2022-12-16T02:37:55;40.07;;;16.10;;
5475;SDS011;2760;50.000;9.194;2022-12-16T02:40:35;31.07;;;16.17;;
5475;SDS011;2760;50.000;9.194;2022-12-16T02:43:07;33.87;;;15.60;;
5475;SDS011;2760;50.000;9.194;2022-12-16T02:45:41;34.73;;;16.90;;
5475;SDS011;2760;50.000;9.194;2022-12-16T02:48:11;34.37;;;14.90;;
5475;SDS011;2760;50.000;9.194;2022-12-16T02:50:38;39.00;;;15.80;;
5475;SDS011;2760;50.000;9.194;2022-12-16T02:53:11;30.77;;;14.43;;
5475;SDS011;2760;50.000;9.194;2022-12-16T02:55:41;36.63;;;16.60;;
5475;SDS011;2760;50.000;9.194;2022-12-16T02:58:18;27.13;;;14.10;;
5475;SDS011;2760;50.000;9.194;2022-12-16T03:00:53;36.50;;;16.90;;
5475;SDS011;2760;50.000;9.194;2022-12-16T03:03:29;31.90;;;16.13;;
5475;SDS011;2760;50.000;9.194;2022-12-16T03:06:02;30.73;;;15.00;;
5475;SDS011;2760;50.000;9.194;2022-12-16T03:08:31;34.97;;;15.50;;
5475;SDS011;2760;50.000;9.194;2022-12-16T03:11:02;27.60;;;13.90;;
5475;SDS011;2760;50.000;9.194;2022-12-16T03:13:32;33.97;;;15.00;;
5475;SDS011;2760;50.000;9.194;2022-12-16T03:16:04;30.27;;;14.63;;
5475;SDS011;2760;50.000;9.194;2022-12-16T03:18:34;31.73;;;13.63;;
5475;SDS011;2760;50.000;9.194;2022-12-16T03:21:07;31.17;;;14.47;;
5475;SDS011;2760;50.000;9.194;2022-12-16T03:23:38;30.97;;;16.10;;
5475;SDS011;2760;50.000;9.194;2022-12-16T03:26:12;33.03;;;15.73;;
5475;SDS011;2760;50.000;9.194;2022-12-16T03:28:46;32.70;;;16.30;;
5475;SDS011;2760;50.000;9.194;2022-12-16T03:31:19;29.40;;;13.93;;
5475;SDS011;2760;50.000;9.194;2022-12-16T03:33:57;27.60;;;15.00;;
5475;SDS011;2760;50.000;9.194;2022-12-16T03:36:34;39.43;;;16.93;;
5475;SDS011;2760;50.000;9.194;2022-12-16T03:39:04;31.70;;;14.30;;
5475;SDS011;2760;50.000;9.194;2022-12-16T03:41:33;29.13;;;14.67;;
5475;SDS011;2760;50.000;9.194;2022-12-16T03:44:01;31.17;;;14.70;;
5475;SDS011;2760;50.000;9.194;2022-12-16T03:46:28;32.07;;;14.97;;
5475;SDS011;2760;50.000;9.194;2022-12-16T03:48:56;32.53;;;15.13;;
5475;SDS011;2760;50.000;9.194;2022-12-16T03:51:29;29.60;;;16.33;;
5475;SDS011;2760;50.000;9.194;2022-12-16T03:53:56;32.03;;;13.57;;
5475;SDS011;2760;50.000;9.194;2022-12-16T03:56:24;32.50;;;14.60;;
5475;SDS011;2760;50.000;9.194;2022-12-16T03:58:52;28.97;;;14.70;;
5475;SDS011;2760;50.000;9.194;2022-12-16T04:01:19;26.70;;;13.10;;
5475;SDS011;2760;50.000;9.194;2022-12-16T04:03:50;28.90;;;14.20;;
5475;SDS011;2760;50.000;9.194;2022-12-16T04:06:19;28.63;;;14.20;;
5475;SDS011;2760;50.000;9.194;2022-12-16T04:08:48;29.50;;;15.00;;
5475;SDS011;2760;50.000;9.194;2022-12-16T04:11:16;32.17;;;15.53;;
5475;SDS011;2760;50.000;9.194;2022-12-16T04:14:00;23.03;;;12.80;;
5475;SDS011;2760;50.000;9.194;2022-12-16T04:16:44;32.67;;;14.53;;
5475;SDS011;2760;50.000;9.194;2022-12-16T04:19:29;26.27;;;13.67;;
5475;SDS011;2760;50.000;9.194;2022-12-16T04:22:18;26.70;;;13.30;;
5475;SDS011;2760;50.000;9.194;2022-12-16T04:25:06;26.67;;;13.43;;
5475;SDS011;2760;50.000;9.194;2022-12-16T04:27:37;28.30;;;14.80;;
5475;SDS011;2760;50.000;9.194;2022-12-16T04:30:12;33.30;;;15.70;;
5475;SDS011;2760;50.000;9.194;2022-12-16T04:32:48;34.20;;;14.93;;
5475;SDS011;2760;50.000;9.194;2022-12-16T04:35:35;25.27;;;15.07;;
5475;SDS011;2760;50.000;9.194;2022-12-16T04:38:21;26.90;;;14.77;;
5475;SDS011;2760;50.000;9.194;2022-12-16T04:41:05;30.77;;;12.43;;
5475;SDS011;2760;50.000;9.194;2022-12-16T04:43:50;25.77;;;12.80;;
5475;SDS011;2760;50.000;9.194;2022-12-16T04:46:35;27.07;;;13.17;;
5475;SDS011;2760;50.000;9.194;2022-12-16T04:49:21;23.53;;;12.70;;
5475;SDS011;2760;50.000;9.194;2022-12-16T04:52:05;26.73;;;13.80;;
5475;SDS011;2760;50.000;9.194;2022-12-16T04:54:51;30.10;;;13.90;;
5475;SDS011;2760;50.000;9.194;2022-12-16T04:57:36;26.37;;;14.43;;
5475;SDS011;2760;50.000;9.194;2022-12-16T05:00:20;31.30;;;13.90;;
5475;SDS011;2760;50.000;9.194;2022-12-16T05:03:05;32.53;;;15.60;;
5475;SDS011;2760;50.000;9.194;2022-12-16T05:05:51;33.70;;;14.70;;
5475;SDS011;2760;50.000;9.194;2022-12-16T05:08:36;32.53;;;15.33;;
5475;SDS011;2760;50.000;9.194;2022-12-16T05:11:23;42.57;;;19.07;;
5475;SDS011;2760;50.000;9.194;2022-12-16T05:14:07;36.73;;;15.50;;
5475;SDS011;2760;50.000;9.194;2022-12-16T05:16:51;33.10;;;14.33;;
5475;SDS011;2760;50.000;9.194;2022-12-16T05:19:36;33.03;;;15.07;;
5475;SDS011;2760;50.000;9.194;2022-12-16T05:22:21;37.47;;;15.40;;
5475;SDS011;2760;50.000;9.194;2022-12-16T05:25:14;45.90;;;18.23;;
5475;SDS011;2760;50.000;9.194;2022-12-16T05:28:00;37.90;;;17.00;;
5475;SDS011;2760;50.000;9.194;2022-12-16T05:30:45;33.73;;;15.37;;
5475;SDS011;2760;50.000;9.194;2022-12-16T05:33:29;32.57;;;15.40;;
5475;SDS011;2760;50.000;9.194;2022-12-16T05:36:14;34.53;;;15.77;;
5475;SDS011;2760;50.000;9.194;2022-12-16T05:38:58;25.97;;;12.80;;
5475;SDS011;2760;50.000;9.194;2022-12-16T05:41:43;32.17;;;13.70;;
5475;SDS011;2760;50.000;9.194;2022-12-16T05:44:36;33.40;;;12.87;;
5475;SDS011;2760;50.000;9.194;2022-12-16T05:47:22;25.70;;;13.03;;
5475;SDS011;2760;50.000;9.194;2022-12-16T05:50:09;24.53;;;14.03;;
5475;SDS011;2760;50.000;9.194;2022-12-16T05:53:06;29.93;;;13.30;;
5475;SDS011;2760;50.000;9.194;2022-12-16T05:55:50;32.73;;;14.70;;
5475;SDS011;2760;50.000;9.194;2022-12-16T05:58:36;29.57;;;13.03;;
5475;SDS011;2760;50.000;9.194;2022-12-16T06:01:22;35.87;;;13.60;;
5475;SDS011;2760;50.000;9.194;2022-12-16T06:04:07;29.73;;;13.90;;
5475;SDS011;2760;50.000;9.194;2022-12-16T06:06:51;33.90;;;14.60;;
5475;SDS011;2760;50.000;9.194;2022-12-16T06:09:37;32.63;;;13.63;;
5475;SDS011;2760;50.000;9.194;2022-12-16T06:12:22;26.83;;;12.90;;
5475;SDS011;2760;50.000;9.194;2022-12-16T06:15:07;32.07;;;14.73;;
5475;SDS011;2760;50.000;9.194;2022-12-16T06:17:54;35.80;;;16.67;;
5475;SDS011;2760;50.000;9.194;2022-12-16T06:20:39;29.43;;;15.13;;
5475;SDS011;2760;50.000;9.194;2022-12-16T06:23:24;35.63;;;17.97;;
5475;SDS011;2760;50.000;9.194;2022-12-16T06:26:08;30.20;;;15.80;;
5475;SDS011;2760;50.000;9.194;2022-12-16T06:28:53;34.17;;;17.10;;
5475;SDS011;2760;50.000;9.194;2022-12-16T06:31:38;29.13;;;14.23;;
5475;SDS011;2760;50.000;9.194;2022-12-16T06:34:23;23.57;;;12.13;;
5475;SDS011;2760;50.000;9.194;2022-12-16T06:37:08;40.43;;;17.73;;
5475;SDS011;2760;50.000;9.194;2022-12-16T06:40:04;35.73;;;17.87;;
5475;SDS011;2760;50.000;9.194;2022-12-16T06:42:49;39.50;;;18.40;;
5475;SDS011;2760;50.000;9.194;2022-12-16T06:45:34;41.93;;;18.37;;
5475;SDS011;2760;50.000;9.194;2022-12-16T06:48:21;41.43;;;17.10;;
5475;SDS011;2760;50.000;9.194;2022-12-16T06:51:21;35.70;;;18.13;;
5475;SDS011;2760;50.000;9.194;2022-12-16T06:54:07;34.50;;;17.50;;
5475;SDS011;2760;50.000;9.194;2022-12-16T06:56:52;37.63;;;16.50;;
5475;SDS011;2760;50.000;9.194;2022-12-16T06:59:37;31.47;;;16.90;;
5475;SDS011;2760;50.000;9.194;2022-12-16T07:02:21;33.97;;;16.17;;
5475;SDS011;2760;50.000;9.194;2022-12-16T07:05:06;31.80;;;13.00;;
5475;SDS011;2760;50.000;9.194;2022-12-16T07:07:56;28.83;;;13.90;;
5475;SDS011;2760;50.000;9.194;2022-12-16T07:10:40;27.13;;;14.03;;
5475;SDS011;2760;50.000;9.194;2022-12-16T07:13:24;38.63;;;16.53;;
5475;SDS011;2760;50.000;9.194;2022-12-16T07:16:09;37.90;;;17.17;;
5475;SDS011;2760;50.000;9.194;2022-12-16T07:18:54;36.50;;;16.77;;
5475;SDS011;2760;50.000;9.194;2022-12-16T07:25:29;33.23;;;15.27;;
5475;SDS011;2760;50.000;9.194;2022-12-16T07:28:13;29.83;;;14.00;;
5475;SDS011;2760;50.000;9.194;2022-12-16T07:30:59;25.60;;;13.90;;
5475;SDS011;2760;50.000;9.194;2022-12-16T07:33:48;40.30;;;15.37;;
5475;SDS011;2760;50.000;9.194;2022-12-16T07:36:34;58.77;;;22.60;;
5475;SDS011;2760;50.000;9.194;2022-12-16T07:39:19;33.47;;;16.90;;
5475;SDS011;2760;50.000;9.194;2022-12-16T07:42:05;54.27;;;21.90;;
5475;SDS011;2760;50.000;9.194;2022-12-16T07:44:50;37.07;;;16.77;;
5475;SDS011;2760;50.000;9.194;2022-12-16T07:47:34;58.23;;;21.20;;
5475;SDS011;2760;50.000;9.194;2022-12-16T07:50:19;76.90;;;25.03;;
5475;SDS011;2760;50.000;9.194;2022-12-16T07:53:03;68.23;;;24.20;;
5475;SDS011;2760;50.000;9.194;2022-12-16T07:55:48;64.53;;;25.90;;
5475;SDS011;2760;50.000;9.194;2022-12-16T07:58:34;51.40;;;19.40;;
5475;SDS011;2760;50.000;9.194;2022-12-16T08:01:18;48.77;;;20.10;;
5475;SDS011;2760;50.000;9.194;2022-12-16T08:04:03;44.97;;;18.40;;
5475;SDS011;2760;50.000;9.194;2022-12-16T08:06:47;30.97;;;16.00;;
5475;SDS011;2760;50.000;9.194;2022-12-16T08:09:32;45.13;;;17.67;;
5475;SDS011;2760;50.000;9.194;2022-12-16T08:12:16;45.33;;;20.77;;
5475;SDS011;2760;50.000;9.194;2022-12-16T08:15:02;52.80;;;20.17;;
5475;SDS011;2760;50.000;9.194;2022-12-16T08:17:48;43.90;;;21.17;;
5475;SDS011;2760;50.000;9.194;2022-12-16T08:20:33;46.30;;;19.70;;
5475;SDS011;2760;50.000;9.194;2022-12-16T08:23:18;34.27;;;18.17;;
5475;SDS011;2760;50.000;9.194;2022-12-16T08:26:04;39.43;;;16.60;;
5475;SDS011;2760;50.000;9.194;2022-12-16T08:28:48;52.10;;;19.20;;
5475;SDS011;2760;50.000;9.194;2022-12-16T08:31:34;35.57;;;17.30;;
5475;SDS011;2760;50.000;9.194;2022-12-16T08:34:19;55.87;;;21.27;;
5475;SDS011;2760;50.000;9.194;2022-12-16T08:37:03;45.67;;;22.67;;
5475;SDS011;2760;50.000;9.194;2022-12-16T08:39:48;52.23;;;20.63;;
5475;SDS011;2760;50.000;9.194;2022-12-16T08:42:33;43.10;;;19.53;;
5475;SDS011;2760;50.000;9.194;2022-12-16T08:45:18;44.70;;;19.03;;
5475;SDS011;2760;50.000;9.194;2022-12-16T08:48:04;47.17;;;21.07;;
5475;SDS011;2760;50.000;9.194;2022-12-16T08:50:49;48.23;;;21.80;;
5475;SDS011;2760;50.000;9.194;2022-12-16T08:53:34;33.93;;;18.10;;
5475;SDS011;2760;50.000;9.194;2022-12-16T08:56:19;46.50;;;21.63;;
5475;SDS011;2760;50.000;9.194;2022-12-16T08:59:03;51.97;;;21.50;;
5475;SDS011;2760;50.000;9.194;2022-12-16T09:01:48;36.60;;;18.73;;
5475;SDS011;2760;50.000;9.194;2022-12-16T09:04:34;50.97;;;21.43;;
5475;SDS011;2760;50.000;9.194;2022-12-16T09:07:19;34.80;;;17.93;;
5475;SDS011;2760;50.000;9.194;2022-12-16T09:10:04;41.53;;;19.63;;
5475;SDS011;2760;50.000;9.194;2022-12-16T09:12:49;44.10;;;21.13;;
5475;SDS011;2760;50.000;9.194;2022-12-16T09:15:34;49.17;;;21.50;;
5475;SDS011;2760;50.000;9.194;2022-12-16T09:18:18;44.83;;;18.93;;
5475;SDS011;2760;50.000;9.194;2022-12-16T09:21:04;47.33;;;20.80;;
5475;SDS011;2760;50.000;9.194;2022-12-16T09:23:49;42.93;;;20.13;;
5475;SDS011;2760;50.000;9.194;2022-12-16T09:26:45;41.40;;;20.60;;
5475;SDS011;2760;50.000;9.194;2022-12-16T09:29:29;44.03;;;20.47;;
5475;SDS011;2760;50.000;9.194;2022-12-16T09:32:15;47.70;;;22.30;;
5475;SDS011;2760;50.000;9.194;2022-12-16T09:35:00;39.77;;;20.07;;
5475;SDS011;2760;50.000;9.194;2022-12-16T09:37:46;37.97;;;19.10;;
5475;SDS011;2760;50.000;9.194;2022-12-16T09:40:33;36.93;;;18.80;;
5475;SDS011;2760;50.000;9.194;2022-12-16T09:43:27;41.53;;;19.03;;
5475;SDS011;2760;50.000;9.194;2022-12-16T09:46:25;36.67;;;18.87;;
5475;SDS011;2760;50.000;9.194;2022-12-16T09:49:18;40.17;;;19.03;;
5475;SDS011;2760;50.000;9.194;2022-12-16T09:52:11;31.13;;;16.70;;
5475;SDS011;2760;50.000;9.194;2022-12-16T09:55:01;38.50;;;17.70;;
5475;SDS011;2760;50.000;9.194;2022-12-16T09:57:46;36.67;;;18.00;;
5475;SDS011;2760;50.000;9.194;2022-12-16T10:00:40;36.80;;;18.00;;
5475;SDS011;2760;50.000;9.194;2022-12-16T10:03:26;38.80;;;16.80;;
5475;SDS011;2760;50.000;9.194;2022-12-16T10:06:19;43.07;;;19.03;;
5475;SDS011;2760;50.000;9.194;2022-12-16T10:09:20;36.23;;;18.73;;
5475;SDS011;2760;50.000;9.194;2022-12-16T10:12:13;41.73;;;18.87;;
5475;SDS011;2760;50.000;9.194;2022-12-16T10:15:11;37.50;;;18.97;;
5475;SDS011;2760;50.000;9.194;2022-12-16T10:18:03;52.13;;;19.07;;
5475;SDS011;2760;50.000;9.194;2022-12-16T10:21:01;44.03;;;18.10;;
5475;SDS011;2760;50.000;9.194;2022-12-16T10:23:48;37.70;;;19.77;;
5475;SDS011;2760;50.000;9.194;2022-12-16T10:26:43;41.90;;;19.93;;
5475;SDS011;2760;50.000;9.194;2022-12-16T10:29:39;42.00;;;21.20;;
5475;SDS011;2760;50.000;9.194;2022-12-16T10:32:24;46.87;;;21.07;;
5475;SDS011;2760;50.000;9.194;2022-12-16T10:35:16;45.43;;;21.57;;
5475;SDS011;2760;50.000;9.194;2022-12-16T10:38:03;40.77;;;20.87;;
5475;SDS011;2760;50.000;9.194;2022-12-16T10:40:55;39.53;;;20.87;;
5475;SDS011;2760;50.000;9.194;2022-12-16T10:43:41;44.07;;;22.57;;
5475;SDS011;2760;50.000;9.194;2022-12-16T10:46:31;37.10;;;19.17;;
5475;SDS011;2760;50.000;9.194;2022-12-16T10:49:17;41.00;;;20.73;;
5475;SDS011;2760;50.000;9.194;2022-12-16T10:52:02;39.23;;;19.77;;
5475;SDS011;2760;50.000;9.194;2022-12-16T10:54:48;36.37;;;20.57;;
5475;SDS011;2760;50.000;9.194;2022-12-16T10:57:41;41.50;;;23.10;;
5475;SDS011;2760;50.000;9.194;2022-12-16T11:00:39;45.63;;;22.30;;
5475;SDS011;2760;50.000;9.194;2022-12-16T11:03:27;43.03;;;22.17;;
5475;SDS011;2760;50.000;9.194;2022-12-16T11:06:15;46.33;;;20.30;;
5475;SDS011;2760;50.000;9.194;2022-12-16T11:09:19;37.53;;;21.90;;
5475;SDS011;2760;50.000;9.194;2022-12-16T11:15:21;51.63;;;22.67;;
5475;SDS011;2760;50.000;9.194;2022-12-16T11:18:08;37.00;;;21.03;;
5475;SDS011;2760;50.000;9.194;2022-12-16T11:21:07;39.37;;;21.73;;
5475;SDS011;2760;50.000;9.194;2022-12-16T11:27:09;39.40;;;22.00;;
5475;SDS011;2760;50.000;9.194;2022-12-16T11:30:15;40.20;;;21.10;;
5475;SDS011;2760;50.000;9.194;2022-12-16T11:33:05;52.20;;;21.93;;
5475;SDS011;2760;50.000;9.194;2022-12-16T11:36:06;37.57;;;21.30;;
5475;SDS011;2760;50.000;9.194;2022-12-16T11:38:56;41.30;;;22.33;;
5475;SDS011;2760;50.000;9.194;2022-12-16T11:41:41;43.17;;;23.10;;
5475;SDS011;2760;50.000;9.194;2022-12-16T11:44:30;39.83;;;21.43;;
5475;SDS011;2760;50.000;9.194;2022-12-16T11:47:21;40.30;;;22.03;;
5475;SDS011;2760;50.000;9.194;2022-12-16T11:50:15;45.00;;;22.83;;
5475;SDS011;2760;50.000;9.194;2022-12-16T11:53:04;42.80;;;21.60;;
5475;SDS011;2760;50.000;9.194;2022-12-16T11:56:04;38.07;;;22.27;;
5475;SDS011;2760;50.000;9.194;2022-12-16T11:58:50;39.80;;;20.70;;
5475;SDS011;2760;50.000;9.194;2022-12-16T12:01:41;34.60;;;20.50;;
5475;SDS011;2760;50.000;9.194;2022-12-16T12:04:32;39.53;;;21.73;;
5475;SDS011;2760;50.000;9.194;2022-12-16T12:07:20;38.13;;;20.57;;
5475;SDS011;2760;50.000;9.194;2022-12-16T12:10:19;36.63;;;19.97;;
5475;SDS011;2760;50.000;9.194;2022-12-16T12:13:20;38.80;;;20.50;;
5475;SDS011;2760;50.000;9.194;2022-12-16T12:16:19;33.13;;;19.30;;
5475;SDS011;2760;50.000;9.194;2022-12-16T12:19:12;35.87;;;20.27;;
5475;SDS011;2760;50.000;9.194;2022-12-16T12:22:08;35.87;;;21.43;;
5475;SDS011;2760;50.000;9.194;2022-12-16T12:25:01;36.10;;;19.37;;
5475;SDS011;2760;50.000;9.194;2022-12-16T12:27:53;33.47;;;18.00;;
5475;SDS011;2760;50.000;9.194;2022-12-16T12:30:48;34.00;;;18.17;;
5475;SDS011;2760;50.000;9.194;2022-12-16T12:33:44;36.73;;;18.03;;
5475;SDS011;2760;50.000;9.194;2022-12-16T12:36:43;36.77;;;18.20;;
5475;SDS011;2760;50.000;9.194;2022-12-16T12:39:34;32.43;;;18.00;;
5475;SDS011;2760;50.000;9.194;2022-12-16T12:42:33;39.07;;;18.43;;
5475;SDS011;2760;50.000;9.194;2022-12-16T12:45:40;36.10;;;19.40;;
5475;SDS011;2760;50.000;9.194;2022-12-16T12:48:36;36.87;;;18.97;;
5475;SDS011;2760;50.000;9.194;2022-12-16T12:51:28;26.67;;;17.00;;
5475;SDS011;2760;50.000;9.194;2022-12-16T12:54:18;29.67;;;16.90;;
5475;SDS011;2760;50.000;9.194;2022-12-16T12:57:08;33.97;;;19.43;;
5475;SDS011;2760;50.000;9.194;2022-12-16T12:59:57;35.37;;;17.67;;
5475;SDS011;2760;50.000;9.194;2022-12-16T13:02:47;30.37;;;16.07;;
5475;SDS011;2760;50.000;9.194;2022-12-16T13:05:38;27.30;;;15.30;;
5475;SDS011;2760;50.000;9.194;2022-12-16T13:08:40;30.00;;;17.03;;
5475;SDS011;2760;50.000;9.194;2022-12-16T13:11:28;27.40;;;16.83;;
5475;SDS011;2760;50.000;9.194;2022-12-16T13:20:55;27.80;;;17.20;;
5475;SDS011;2760;50.000;9.194;2022-12-16T13:23:41;30.23;;;18.40;;
5475;SDS011;2760;50.000;9.194;2022-12-16T13:26:28;30.50;;;17.27;;
5475;SDS011;2760;50.000;9.194;2022-12-16T13:29:17;28.70;;;16.70;;
5475;SDS011;2760;50.000;9.194;2022-12-16T13:32:13;25.37;;;15.30;;
5475;SDS011;2760;50.000;9.194;2022-12-16T13:35:01;30.70;;;17.97;;
5475;SDS011;2760;50.000;9.194;2022-12-16T13:37:52;25.27;;;15.67;;
5475;SDS011;2760;50.000;9.194;2022-12-16T13:40:47;37.30;;;17.70;;
5475;SDS011;2760;50.000;9.194;2022-12-16T13:43:43;26.60;;;16.63;;
5475;SDS011;2760;50.000;9.194;2022-12-16T13:46:38;31.60;;;15.63;;
5475;SDS011;2760;50.000;9.194;2022-12-16T13:49:44;28.17;;;15.50;;
5475;SDS011;2760;50.000;9.194;2022-12-16T13:52:41;34.97;;;17.07;;
5475;SDS011;2760;50.000;9.194;2022-12-16T13:55:31;33.00;;;17.93;;
5475;SDS011;2760;50.000;9.194;2022-12-16T13:58:20;43.73;;;23.53;;
5475;SDS011;2760;50.000;9.194;2022-12-16T14:01:13;33.03;;;17.47;;
5475;SDS011;2760;50.000;9.194;2022-12-16T14:04:02;46.00;;;18.50;;
5475;SDS011;2760;50.000;9.194;2022-12-16T14:06:52;32.00;;;16.40;;
5475;SDS011;2760;50.000;9.194;2022-12-16T14:09:38;31.97;;;16.30;;
5475;SDS011;2760;50.000;9.194;2022-12-16T14:12:39;32.73;;;16.47;;
5475;SDS011;2760;50.000;9.194;2022-12-16T14:15:34;47.73;;;21.00;;
5475;SDS011;2760;50.000;9.194;2022-12-16T14:18:33;31.20;;;15.93;;
5475;SDS011;2760;50.000;9.194;2022-12-16T14:21:26;27.27;;;13.80;;
5475;SDS011;2760;50.000;9.194;2022-12-16T14:24:17;18.57;;;10.60;;
5475;SDS011;2760;50.000;9.194;2022-12-16T14:27:10;16.57;;;10.77;;
5475;SDS011;2760;50.000;9.194;2022-12-16T14:29:58;16.57;;;10.33;;
5475;SDS011;2760;50.000;9.194;2022-12-16T14:32:44;19.37;;;10.23;;
5475;SDS011;2760;50.000;9.194;2022-12-16T14:35:28;16.80;;;8.23;;
5475;SDS011;2760;50.000;9.194;2022-12-16T14:38:20;13.60;;;8.73;;
5475;SDS011;2760;50.000;9.194;2022-12-16T14:41:09;18.30;;;11.77;;
5475;SDS011;2760;50.000;9.194;2022-12-16T14:43:54;14.27;;;8.90;;
5475;SDS011;2760;50.000;9.194;2022-12-16T14:46:49;11.60;;;8.13;;
5475;SDS011;2760;50.000;9.194;2022-12-16T14:49:34;11.37;;;8.63;;
5475;SDS011;2760;50.000;9.194;2022-12-16T14:52:19;13.83;;;9.13;;
5475;SDS011;2760;50.000;9.194;2022-12-16T14:55:12;11.20;;;8.33;;
5475;SDS011;2760;50.000;9.194;2022-12-16T14:58:03;13.90;;;9.00;;
5475;SDS011;2760;50.000;9.194;2022-12-16T15:01:10;23.83;;;13.67;;
5475;SDS011;2760;50.000;9.194;2022-12-16T15:03:59;21.23;;;12.63;;
5475;SDS011;2760;50.000;9.194;2022-12-16T15:06:46;22.00;;;13.30;;
5475;SDS011;2760;50.000;9.194;2022-12-16T15:09:45;24.83;;;12.97;;
5475;SDS011;2760;50.000;9.194;2022-12-16T15:12:35;21.40;;;12.93;;
5475;SDS011;2760;50.000;9.194;2022-12-16T15:15:23;20.37;;;11.73;;
5475;SDS011;2760;50.000;9.194;2022-12-16T15:18:14;20.80;;;12.60;;
5475;SDS011;2760;50.000;9.194;2022-12-16T15:21:03;18.17;;;11.97;;
5475;SDS011;2760;50.000;9.194;2022-12-16T15:23:50;20.77;;;12.37;;
5475;SDS011;2760;50.000;9.194;2022-12-16T15:26:35;26.73;;;12.83;;
5475;SDS011;2760;50.000;9.194;2022-12-16T15:29:27;20.07;;;12.37;;
5475;SDS011;2760;50.000;9.194;2022-12-16T15:32:24;15.40;;;11.57;;
5475;SDS011;2760;50.000;9.194;2022-12-16T15:35:23;25.23;;;13.30;;
5475;SDS011;2760;50.000;9.194;2022-12-16T15:38:11;27.20;;;14.40;;
5475;SDS011;2760;50.000;9.194;2022-12-16T15:41:01;22.53;;;12.20;;
5475;SDS011;2760;50.000;9.194;2022-12-16T15:43:47;19.40;;;10.87;;
5475;SDS011;2760;50.000;9.194;2022-12-16T15:46:33;23.90;;;11.07;;
5475;SDS011;2760;50.000;9.194;2022-12-16T15:49:19;17.27;;;11.73;;
5475;SDS011;2760;50.000;9.194;2022-12-16T15:52:30;22.33;;;11.73;;
5475;SDS011;2760;50.000;9.194;2022-12-16T15:55:26;20.33;;;12.50;;
5475;SDS011;2760;50.000;9.194;2022-12-16T15:58:13;22.63;;;12.93;;
5475;SDS011;2760;50.000;9.194;2022-12-16T16:01:02;19.70;;;13.03;;
5475;SDS011;2760;50.000;9.194;2022-12-16T16:03:48;25.10;;;14.47;;
5475;SDS011;2760;50.000;9.194;2022-12-16T16:06:33;24.23;;;14.10;;
5475;SDS011;2760;50.000;9.194;2022-12-16T16:09:19;21.00;;;12.67;;
5475;SDS011;2760;50.000;9.194;2022-12-16T16:12:06;22.40;;;14.00;;
5475;SDS011;2760;50.000;9.194;2022-12-16T16:14:52;21.33;;;13.90;;
5475;SDS011;2760;50.000;9.194;2022-12-16T16:17:36;22.20;;;14.07;;
5475;SDS011;2760;50.000;9.194;2022-12-16T16:20:24;23.13;;;12.27;;
5475;SDS011;2760;50.000;9.194;2022-12-16T16:23:08;28.03;;;15.33;;
5475;SDS011;2760;50.000;9.194;2022-12-16T16:25:53;24.80;;;14.93;;
5475;SDS011;2760;50.000;9.194;2022-12-16T16:28:39;29.57;;;16.17;;
5475;SDS011;2760;50.000;9.194;2022-12-16T16:31:23;36.17;;;17.30;;
5475;SDS011;2760;50.000;9.194;2022-12-16T16:34:08;35.00;;;17.47;;
5475;SDS011;2760;50.000;9.194;2022-12-16T16:36:53;33.13;;;16.47;;
5475;SDS011;2760;50.000;9.194;2022-12-16T16:39:39;33.33;;;16.37;;
5475;SDS011;2760;50.000;9.194;2022-12-16T16:42:25;46.70;;;17.37;;
5475;SDS011;2760;50.000;9.194;2022-12-16T16:45:11;29.83;;;15.30;;
5475;SDS011;2760;50.000;9.194;2022-12-16T16:48:02;33.20;;;16.07;;
5475;SDS011;2760;50.000;9.194;2022-12-16T16:50:49;33.90;;;16.07;;
5475;SDS011;2760;50.000;9.194;2022-12-16T16:53:37;41.63;;;20.10;;